Terminal Aerodrome Forecast
Issued by NWS Hastings, NE

Home | Current Version | Previous Version | Text Only | Print | Product List | Glossary On
Versions: 1 2 3 4 5 6 7 8 9 10 11 12 13 14 15 16 17 18 19 20 21 22 23 24 25 26 27 28 29 30
136
FTUS43 KGID 202334
TAFGRI
TAF
KGRI 202334Z 2100/2124 17021G29KT P6SM VCTS FEW050 FEW100CB SCT200
      WS010/18051KT
     FM210600 17021G29KT P6SM SCT020 SCT200 WS010/18051KT
     FM211300 24012KT P6SM SCT020 BKN200
     FM211500 29011KT P6SM SCT100 BKN200
     FM211700 32019G28KT P6SM SCT050 BKN100=

USA.gov is the U.S. government's official web portal to all federal, state and local government web resources and services.